Terminal Aerodrome Forecast
Issued by NWS Des Moines, IA

Home | Current Version | Previous Version | Text Only | Print | Product List | Glossary On
Versions: 1 2 3 4 5 6 7 8 9 10 11 12 13 14 15 16 17 18 19 20 21 22 23 24 25 26 27 28
000
FTUS43 KDMX 020119 AAA
TAFALO
TAF AMD
KALO 020119Z 0201/0224 17014G20KT P6SM SCT250
     FM020400 19012KT P6SM SCT250
     FM020600 19010KT 4SM -SHRA BR VCTS OVC030CB
     FM021100 33012KT P6SM SCT050 BKN150
     FM021500 33012G17KT P6SM SCT250=

USA.gov is the U.S. government's official web portal to all federal, state and local government web resources and services.